Terminal Aerodrome Forecast
Issued by NWS

Home | Current Version | Previous Version | Text Only | Print | Product List | Glossary Off
Versions: 1 2 3 4 5 6 7 8 9 10 11 12 13 14 15 16 17 18 19 20 21 22 23 24 25 26 27 28 29 30

329
FTUS43 KOAX 281158 CCA
TAFCDR
TAF COR
KCDR 281158Z 2812/2912 35004KT P6SM OVC010
     FM281600 02006KT P6SM OVC015
     FM290400 VRB04KT 3SM -SN BR OVC008=

USA.gov is the U.S. government's official web portal to all federal, state and local government web resources and services.